createdAt,value
2022-08-22T00:01:53.353Z,97586.98
2022-08-22T00:03:08.327Z,97592.17
2022-08-22T00:03:09.412Z,97618.86
2022-08-22T00:05:28.086Z,97588.83
2022-08-22T00:09:33.388Z,97589.13
2022-08-22T00:13:15.455Z,97586.04
2022-08-22T00:16:53.499Z,97587.19
2022-08-22T00:20:57.220Z,97582.98
2022-08-22T00:24:46.267Z,97577.09
2022-08-22T00:28:37.631Z,97574.56
2022-08-22T00:32:08.326Z,97572.98
2022-08-22T00:36:15.642Z,97571.27
2022-08-22T00:39:45.964Z,97569.80
2022-08-22T00:43:19.869Z,97571.92
2022-08-22T00:47:11.096Z,97571.54
2022-08-22T00:50:52.390Z,97577.42
2022-08-22T00:54:37.140Z,97579.65
2022-08-22T00:58:33.908Z,97580.70
2022-08-22T01:02:22.100Z,97579.70
2022-08-22T01:06:03.003Z,97583.73
2022-08-22T01:09:47.274Z,97576.79
2022-08-22T01:13:28.775Z,97576.36
2022-08-22T01:17:29.432Z,97569.42
2022-08-22T01:21:16.041Z,97570.08
2022-08-22T01:25:22.369Z,97568.50
2022-08-22T01:29:28.387Z,97567.39
2022-08-22T01:33:21.363Z,97564.46
2022-08-22T01:37:05.038Z,97562.89
2022-08-22T01:40:53.587Z,97565.38
2022-08-22T01:44:30.302Z,97568.15
2022-08-22T01:48:15.712Z,97568.35
2022-08-22T01:51:50.211Z,97576.58
2022-08-22T01:55:21.803Z,97582.94
2022-08-22T01:59:20.142Z,97581.79
2022-08-22T02:03:23.156Z,97583.67
2022-08-22T02:07:31.761Z,97584.06
2022-08-22T02:11:11.889Z,97583.44
2022-08-22T02:14:51.988Z,97589.20
2022-08-22T02:18:50.181Z,97588.79
2022-08-22T02:22:34.999Z,97589.67
2022-08-22T02:26:46.328Z,97586.20
2022-08-22T02:30:12.686Z,97587.98
2022-08-22T02:33:57.070Z,97589.13
2022-08-22T02:37:31.044Z,97585.28
2022-08-22T02:41:16.560Z,97589.09
2022-08-22T02:44:48.714Z,97589.07
2022-08-22T02:48:38.474Z,97588.81
2022-08-22T02:52:40.070Z,97590.86
2022-08-22T02:56:14.632Z,97590.24
2022-08-22T03:00:02.934Z,97590.28
2022-08-22T03:03:27.348Z,97596.09
2022-08-22T03:07:14.072Z,97594.85
2022-08-22T03:10:54.746Z,97592.61
2022-08-22T03:14:29.359Z,97593.27
2022-08-22T03:18:03.980Z,97592.45
2022-08-22T03:22:24.827Z,97596.52
2022-08-22T03:26:20.154Z,97596.60
2022-08-22T03:29:52.286Z,97595.70
2022-08-22T03:33:22.803Z,97591.66
2022-08-22T03:37:16.646Z,97590.27
2022-08-22T03:41:14.719Z,97594.73
2022-08-22T03:45:26.006Z,97593.66
2022-08-22T03:48:57.057Z,97593.40
2022-08-22T03:53:15.308Z,97593.20
2022-08-22T03:57:00.465Z,97599.26
2022-08-22T04:00:29.229Z,97600.83
2022-08-22T04:04:38.621Z,97597.54
2022-08-22T04:08:30.611Z,97603.98
2022-08-22T04:12:01.903Z,97606.02
2022-08-22T04:15:58.643Z,97602.59
2022-08-22T04:19:26.571Z,97604.29
2022-08-22T04:23:31.564Z,97608.85
2022-08-22T04:27:10.715Z,97606.30
2022-08-22T04:30:54.699Z,97603.86
2022-08-22T04:34:51.555Z,97606.16
2022-08-22T04:38:31.047Z,97604.81
2022-08-22T04:42:28.831Z,97608.83
2022-08-22T04:46:17.075Z,97609.08
2022-08-22T04:49:48.431Z,97609.93
2022-08-22T04:53:40.741Z,97612.31
2022-08-22T04:57:11.843Z,97609.89
2022-08-22T05:01:06.492Z,97609.20
2022-08-22T05:05:03.711Z,97609.95
2022-08-22T05:08:31.139Z,97617.27
2022-08-22T05:12:12.106Z,97620.71
2022-08-22T05:15:44.090Z,97621.27
2022-08-22T05:19:29.615Z,97623.89
2022-08-22T05:23:18.723Z,97629.15
2022-08-22T05:26:44.813Z,97633.92
2022-08-22T05:30:28.415Z,97640.34
2022-08-22T05:34:00.623Z,97639.48
2022-08-22T05:37:44.997Z,97643.55
2022-08-22T05:41:12.356Z,97647.36
2022-08-22T05:44:44.874Z,97653.88
2022-08-22T05:48:34.413Z,97661.31
2022-08-22T05:52:34.792Z,97659.84
2022-08-22T05:56:05.775Z,97665.02
2022-08-22T05:59:38.272Z,97657.67
2022-08-22T06:03:25.942Z,97664.46
2022-08-22T06:07:14.815Z,97669.35
2022-08-22T06:10:42.680Z,97670.88
2022-08-22T06:14:29.285Z,97667.86
2022-08-22T06:18:01.999Z,97670.30
2022-08-22T06:21:39.587Z,97670.79
2022-08-22T06:25:17.027Z,97669.18
2022-08-22T06:28:54.622Z,97672.90
2022-08-22T06:32:59.767Z,97666.62
2022-08-22T06:36:48.067Z,97675.80
2022-08-22T06:40:13.467Z,97678.17
2022-08-22T06:43:46.912Z,97682.22
2022-08-22T06:47:29.115Z,97686.33
2022-08-22T06:51:01.281Z,97690.27
2022-08-22T06:54:41.708Z,97692.16
2022-08-22T06:58:45.517Z,97693.38
2022-08-22T07:02:28.637Z,97693.90
2022-08-22T07:06:16.947Z,97691.17
2022-08-22T07:09:41.512Z,97689.08
2022-08-22T07:13:19.388Z,97687.02
2022-08-22T07:17:21.080Z,97690.38
2022-08-22T07:20:49.708Z,97688.86
2022-08-22T07:24:46.874Z,97692.74
2022-08-22T07:28:51.639Z,97698.20
2022-08-22T07:32:30.566Z,97696.45
2022-08-22T07:36:01.934Z,97697.55
2022-08-22T07:40:13.086Z,97694.59
2022-08-22T07:43:46.922Z,97702.38
2022-08-22T07:47:18.075Z,97703.77
2022-08-22T07:51:17.253Z,97702.34
2022-08-22T07:54:47.207Z,97703.27
2022-08-22T07:58:17.005Z,97702.28
2022-08-22T08:01:58.535Z,97704.17
2022-08-22T08:05:48.247Z,97704.84
2022-08-22T08:09:17.726Z,97705.56
2022-08-22T08:13:01.673Z,97706.86
2022-08-22T08:16:32.681Z,97705.96
2022-08-22T08:20:09.420Z,97708.90
2022-08-22T08:23:46.095Z,97708.52
2022-08-22T08:27:39.509Z,97710.05
2022-08-22T08:31:15.933Z,97713.55
2022-08-22T08:34:40.179Z,97713.80
2022-08-22T08:38:23.226Z,97719.79
2022-08-22T08:41:55.100Z,97718.37
2022-08-22T08:46:07.741Z,97720.48
2022-08-22T08:49:42.140Z,97718.98
2022-08-22T08:53:19.108Z,97719.23
2022-08-22T08:57:31.037Z,97716.82
2022-08-22T09:01:19.440Z,97714.99
2022-08-22T09:05:16.422Z,97710.30
2022-08-22T09:09:12.231Z,97710.21
2022-08-22T09:13:12.963Z,97710.14
2022-08-22T09:16:36.799Z,97709.63
2022-08-22T09:20:46.340Z,97709.21
2022-08-22T09:24:17.998Z,97710.79
2022-08-22T09:28:20.376Z,97710.61
2022-08-22T09:32:20.443Z,97713.87
2022-08-22T09:40:16.242Z,97719.30
2022-08-22T09:40:18.882Z,97720.21
2022-08-22T09:44:08.539Z,97721.63
2022-08-22T09:48:02.229Z,97720.27
2022-08-22T09:52:05.276Z,97722.20
2022-08-22T09:55:41.409Z,97726.33
2022-08-22T09:59:40.163Z,97730.70
2022-08-22T10:03:58.467Z,97733.64
2022-08-22T10:07:52.678Z,97738.15
2022-08-22T10:11:38.773Z,97736.15
2022-08-22T10:15:36.896Z,97737.41
2022-08-22T10:19:36.933Z,97732.11
2022-08-22T10:23:21.457Z,97727.50
2022-08-22T10:26:51.969Z,97733.04
2022-08-22T10:30:54.895Z,97733.33
2022-08-22T10:34:25.443Z,97736.98
2022-08-22T10:38:25.280Z,97739.23
2022-08-22T10:42:28.299Z,97740.09
2022-08-22T10:46:03.504Z,97738.78
2022-08-22T10:49:52.544Z,97738.36
2022-08-22T10:53:53.517Z,97735.74
2022-08-22T10:57:33.117Z,97732.79
2022-08-22T11:01:15.119Z,97730.25
2022-08-22T11:05:32.691Z,97728.35
2022-08-22T11:09:11.469Z,97725.36
2022-08-22T11:12:41.751Z,97727.67
2022-08-22T11:16:36.798Z,97725.05
2022-08-22T11:20:19.438Z,97718.48
2022-08-22T11:23:46.212Z,97719.77
2022-08-22T11:28:01.516Z,97713.37
2022-08-22T11:31:51.662Z,97710.49
2022-08-22T11:35:24.223Z,97707.34
2022-08-22T11:39:40.263Z,97708.48
2022-08-22T11:43:34.810Z,97711.60
2022-08-22T11:47:19.887Z,97712.48
2022-08-22T11:51:03.149Z,97708.10
2022-08-22T11:55:16.148Z,97710.61
2022-08-22T11:58:51.315Z,97707.96
2022-08-22T12:02:42.467Z,97711.20
2022-08-22T12:06:56.100Z,97705.44
2022-08-22T12:10:27.189Z,97697.46
2022-08-22T12:14:06.381Z,97697.15
2022-08-22T12:18:17.755Z,97689.80
2022-08-22T12:21:46.175Z,97681.84
2022-08-22T12:25:51.743Z,97679.11
2022-08-22T12:29:39.632Z,97667.58
2022-08-22T12:33:30.539Z,97654.98
2022-08-22T12:37:23.744Z,97650.98
2022-08-22T12:41:03.841Z,97651.34
2022-08-22T12:44:36.919Z,97648.79
2022-08-22T12:48:36.051Z,97646.10
2022-08-22T12:52:08.172Z,97645.71
2022-08-22T12:56:18.565Z,97651.14
2022-08-22T13:00:26.767Z,97657.38
2022-08-22T13:03:59.678Z,97665.21
2022-08-22T13:07:35.379Z,97665.11
2022-08-22T13:11:17.493Z,97671.56
2022-08-22T13:14:49.168Z,97670.73
2022-08-22T13:18:31.187Z,97680.15
2022-08-22T13:22:08.227Z,97687.29
2022-08-22T13:26:07.638Z,97691.45
2022-08-22T13:29:42.848Z,97689.61
2022-08-22T13:33:34.311Z,97686.63
2022-08-22T13:37:24.408Z,97686.91
2022-08-22T13:40:49.290Z,97681.77
2022-08-22T13:44:49.557Z,97681.45
2022-08-22T13:48:15.630Z,97682.99
2022-08-22T13:52:29.811Z,97691.20
2022-08-22T13:56:03.972Z,97694.40
2022-08-22T13:59:53.642Z,97710.85
2022-08-22T14:03:27.440Z,97713.06
2022-08-22T14:07:32.605Z,97726.98
2022-08-22T14:11:06.625Z,97735.27
2022-08-22T14:14:35.459Z,97710.63
2022-08-22T14:18:32.369Z,97703.49
2022-08-22T14:22:01.135Z,97683.95
2022-08-22T14:25:36.816Z,97677.08
2022-08-22T14:29:38.801Z,97671.55
2022-08-22T14:33:23.644Z,97682.08
2022-08-22T14:37:04.121Z,97690.02
2022-08-22T14:40:54.337Z,97704.97
2022-08-22T14:44:32.350Z,97707.71
2022-08-22T14:48:31.369Z,97710.65
2022-08-22T14:52:05.145Z,97712.30
2022-08-22T14:55:30.726Z,97704.33
2022-08-22T14:59:14.827Z,97709.25
2022-08-22T15:02:44.997Z,97715.02
2022-08-22T15:06:48.240Z,97719.92
2022-08-22T15:10:37.312Z,97719.89
2022-08-22T15:14:12.598Z,97719.81
2022-08-22T15:17:45.407Z,97716.73
2022-08-22T15:21:30.294Z,97716.16
2022-08-22T15:25:28.769Z,97709.48
2022-08-22T15:29:01.736Z,97708.04
2022-08-22T15:32:41.937Z,97709.94
2022-08-22T15:36:18.856Z,97700.60
2022-08-22T15:40:11.903Z,97700.09
2022-08-22T15:43:44.782Z,97694.27
2022-08-22T15:47:34.993Z,97686.10
2022-08-22T15:51:09.454Z,97683.21
2022-08-22T15:54:41.558Z,97685.42
2022-08-22T15:58:32.254Z,97692.02
2022-08-22T16:01:59.343Z,97691.49
2022-08-22T16:05:49.016Z,97685.61
2022-08-22T16:09:45.708Z,97699.77
2022-08-22T16:13:35.530Z,97709.43
2022-08-22T16:17:04.057Z,97709.27
2022-08-22T16:20:37.462Z,97705.41
2022-08-22T16:24:14.035Z,97706.04
2022-08-22T16:27:56.716Z,97698.17
2022-08-22T16:31:27.949Z,97704.48
2022-08-22T16:35:04.956Z,97708.46
2022-08-22T16:38:46.788Z,97713.02
2022-08-22T16:42:24.150Z,97713.01
2022-08-22T16:45:55.479Z,97714.98
2022-08-22T16:49:35.416Z,97710.38
2022-08-22T16:53:27.490Z,97714.27
2022-08-22T16:57:18.674Z,97726.90
2022-08-22T17:01:20.070Z,97731.25
2022-08-22T17:04:50.479Z,97730.33
2022-08-22T17:08:46.570Z,97730.23
2022-08-22T17:12:26.984Z,97731.67
2022-08-22T17:16:24.523Z,97739.20
2022-08-22T17:19:55.750Z,97740.76
2022-08-22T17:23:41.805Z,97738.00
2022-08-22T17:27:19.310Z,97738.45
2022-08-22T17:30:53.737Z,97738.45
2022-08-22T17:34:49.719Z,97752.21
2022-08-22T17:39:09.410Z,97778.11
2022-08-22T17:42:50.160Z,97782.23
2022-08-22T17:46:14.995Z,97765.61
2022-08-22T17:50:03.064Z,97751.01
2022-08-22T17:53:50.194Z,97751.77
2022-08-22T17:57:28.188Z,97747.02
2022-08-22T18:01:03.754Z,97750.27
2022-08-22T18:05:02.983Z,97756.35
2022-08-22T18:13:00.500Z,97761.61
2022-08-22T18:16:51.664Z,97761.23
2022-08-22T18:20:23.046Z,97770.14
2022-08-22T18:24:14.517Z,97772.42
2022-08-22T18:28:02.833Z,97775.11
2022-08-22T18:32:12.574Z,97782.56
2022-08-22T18:36:09.476Z,97786.91
2022-08-22T18:39:43.039Z,97779.45
2022-08-22T18:43:47.564Z,97772.89
2022-08-22T18:47:21.010Z,97775.23
2022-08-22T18:50:47.366Z,97777.10
2022-08-22T18:55:03.504Z,97771.96
2022-08-22T18:59:05.854Z,97772.34
2022-08-22T19:03:06.505Z,97769.32
2022-08-22T19:06:44.914Z,97765.63
2022-08-22T19:10:29.981Z,97761.94
2022-08-22T19:14:05.650Z,97760.27
2022-08-22T19:18:00.286Z,97762.50
2022-08-22T19:21:47.622Z,97772.10
2022-08-22T19:25:12.563Z,97783.10
2022-08-22T19:28:47.728Z,97767.98
2022-08-22T19:32:45.393Z,97767.92
2022-08-22T19:36:32.097Z,97770.68
2022-08-22T19:40:10.186Z,97771.64
2022-08-22T19:43:38.387Z,97762.86
2022-08-22T19:47:12.175Z,97761.73
2022-08-22T19:50:46.236Z,97762.84
2022-08-22T19:54:26.718Z,97763.31
2022-08-22T19:58:31.833Z,97768.27
2022-08-22T20:02:20.701Z,97764.00
2022-08-22T20:06:03.447Z,97760.02
2022-08-22T20:10:07.435Z,97760.21
2022-08-22T20:13:33.060Z,97758.61
2022-08-22T20:17:24.775Z,97750.49
2022-08-22T20:21:00.947Z,97744.55
2022-08-22T20:24:52.872Z,97742.86
2022-08-22T20:28:33.373Z,97740.08
2022-08-22T20:31:58.894Z,97745.73
2022-08-22T20:35:41.708Z,97738.86
2022-08-22T20:39:19.510Z,97735.20
2022-08-22T20:43:28.435Z,97739.41
2022-08-22T20:47:06.093Z,97736.45
2022-08-22T20:50:29.336Z,97727.36
2022-08-22T20:54:20.451Z,97727.16
2022-08-22T20:57:54.164Z,97719.89
2022-08-22T21:01:19.866Z,97720.75
2022-08-22T21:05:17.674Z,97720.25
2022-08-22T21:08:39.720Z,97713.55
2022-08-22T21:12:16.838Z,97709.77
2022-08-22T21:16:14.152Z,97705.55
2022-08-22T21:19:39.616Z,97710.34
2022-08-22T21:23:15.498Z,97704.02
2022-08-22T21:26:58.757Z,97697.02
2022-08-22T21:30:47.324Z,97693.40
2022-08-22T21:34:15.909Z,97679.35
2022-08-22T21:37:47.091Z,97672.79
2022-08-22T21:41:42.163Z,97676.79
2022-08-22T21:45:44.166Z,97669.34
2022-08-22T21:49:28.939Z,97679.13
2022-08-22T21:52:58.020Z,97683.50
2022-08-22T21:56:47.836Z,97688.57
2022-08-22T22:00:41.385Z,97695.02
2022-08-22T22:04:30.380Z,97691.83
2022-08-22T22:07:52.051Z,97685.70
2022-08-22T22:11:29.026Z,97692.88
2022-08-22T22:15:05.976Z,97707.10
2022-08-22T22:18:42.491Z,97735.80
2022-08-22T22:22:21.317Z,97777.89
2022-08-22T22:26:00.728Z,97809.88
2022-08-22T22:29:52.082Z,97805.70
2022-08-22T22:33:35.875Z,97813.96
2022-08-22T22:36:57.513Z,97816.59
2022-08-22T22:40:34.213Z,97792.36
2022-08-22T22:44:10.833Z,97780.61
2022-08-22T22:47:47.698Z,97786.67
2022-08-22T22:51:43.405Z,97767.91
2022-08-22T22:55:25.232Z,97777.81
2022-08-22T22:59:12.897Z,97771.48
2022-08-22T23:02:35.104Z,97781.10
2022-08-22T23:06:18.676Z,97796.00
2022-08-22T23:09:48.901Z,97793.25
2022-08-22T23:13:47.583Z,97785.55
2022-08-22T23:17:09.564Z,97783.16
2022-08-22T23:20:46.091Z,97775.12
2022-08-22T23:24:24.014Z,97761.23
2022-08-22T23:28:00.294Z,97749.44
2022-08-22T23:31:40.355Z,97735.18
2022-08-22T23:35:13.002Z,97724.14
2022-08-22T23:39:10.327Z,97712.08
2022-08-22T23:42:51.107Z,97696.23
2022-08-22T23:46:15.088Z,97705.27
2022-08-22T23:49:49.599Z,97711.30
2022-08-22T23:53:28.592Z,97720.45
2022-08-22T23:57:26.326Z,97715.23
